createdAt,value
2017-08-18T00:01:09.940Z,7.43
2017-08-18T00:03:37.156Z,8.47
2017-08-18T00:06:04.377Z,7.53
2017-08-18T00:08:31.592Z,6.93
2017-08-18T00:10:58.833Z,8.30
2017-08-18T00:13:26.064Z,6.87
2017-08-18T00:15:53.327Z,7.47
2017-08-18T00:18:20.549Z,7.40
2017-08-18T00:20:47.780Z,6.60
2017-08-18T00:23:15.013Z,7.10
2017-08-18T00:25:42.237Z,6.80
2017-08-18T00:28:09.464Z,7.70
2017-08-18T00:30:36.693Z,6.67
2017-08-18T00:33:05.896Z,7.43
2017-08-18T00:35:33.120Z,7.10
2017-08-18T00:38:00.345Z,6.97
2017-08-18T00:40:27.572Z,7.13
2017-08-18T00:42:54.796Z,7.00
2017-08-18T00:45:22.033Z,7.27
2017-08-18T00:47:49.256Z,7.13
2017-08-18T00:50:16.484Z,6.70
2017-08-18T00:52:43.705Z,6.60
2017-08-18T00:55:10.937Z,7.30
2017-08-18T00:57:38.029Z,6.90
2017-08-18T01:00:05.265Z,6.97
2017-08-18T01:02:32.495Z,7.90
2017-08-18T01:04:59.726Z,7.00
2017-08-18T01:07:28.908Z,7.50
2017-08-18T01:09:59.057Z,7.50
2017-08-18T01:12:26.278Z,7.67
2017-08-18T01:14:55.409Z,6.50
2017-08-18T01:17:22.624Z,7.17
2017-08-18T01:19:50.998Z,6.80
2017-08-18T01:22:18.226Z,8.03
2017-08-18T01:24:45.692Z,7.63
2017-08-18T01:27:12.908Z,7.50
2017-08-18T01:29:40.135Z,6.77
2017-08-18T01:32:07.364Z,7.30
2017-08-18T01:34:36.569Z,6.87
2017-08-18T01:37:03.796Z,6.83
2017-08-18T01:39:31.040Z,7.10
2017-08-18T01:41:58.926Z,6.47
2017-08-18T01:44:26.149Z,7.50
2017-08-18T01:46:53.377Z,7.13
2017-08-18T01:49:20.601Z,7.10
2017-08-18T01:51:47.821Z,6.80
2017-08-18T01:54:15.065Z,7.40
2017-08-18T01:56:42.294Z,7.50
2017-08-18T01:59:09.517Z,7.40
2017-08-18T02:01:38.684Z,7.40
2017-08-18T02:04:05.912Z,6.80
2017-08-18T02:06:35.097Z,6.80
2017-08-18T02:09:02.344Z,7.10
2017-08-18T02:11:29.560Z,7.20
2017-08-18T02:13:56.789Z,7.57
2017-08-18T02:16:25.986Z,7.47
2017-08-18T02:18:53.213Z,7.87
2017-08-18T02:21:22.374Z,7.30
2017-08-18T02:23:49.601Z,7.33
2017-08-18T02:26:16.824Z,7.13
2017-08-18T02:28:46.004Z,8.20
2017-08-18T02:31:13.229Z,8.40
2017-08-18T02:33:40.314Z,7.17
2017-08-18T02:36:07.534Z,6.50
2017-08-18T02:38:34.757Z,8.17
2017-08-18T02:41:01.992Z,7.43
2017-08-18T02:43:29.229Z,7.60
2017-08-18T02:45:56.463Z,8.17
2017-08-18T02:48:23.697Z,8.10
2017-08-18T02:50:52.873Z,6.73
2017-08-18T02:53:20.096Z,8.10
2017-08-18T02:55:47.320Z,8.00
2017-08-18T02:58:14.550Z,9.17
2017-08-18T03:00:43.726Z,7.60
2017-08-18T03:03:10.977Z,7.80
2017-08-18T03:05:38.208Z,7.80
2017-08-18T03:08:05.429Z,7.57
2017-08-18T03:10:32.653Z,8.03
2017-08-18T03:12:59.888Z,7.20
2017-08-18T03:15:27.113Z,8.20
2017-08-18T03:17:54.340Z,8.10
2017-08-18T03:20:21.566Z,8.80
2017-08-18T03:22:48.792Z,8.73
2017-08-18T03:25:16.113Z,7.57
2017-08-18T03:27:44.322Z,8.40
2017-08-18T03:30:11.549Z,8.63
2017-08-18T03:32:38.780Z,7.83
2017-08-18T03:35:06.016Z,7.53
2017-08-18T03:37:33.252Z,8.40
2017-08-18T03:40:00.480Z,7.27
2017-08-18T03:42:27.706Z,7.90
2017-08-18T03:44:54.932Z,7.97
2017-08-18T03:47:22.157Z,7.63
2017-08-18T03:49:49.389Z,9.00
2017-08-18T03:52:16.616Z,8.73
2017-08-18T03:54:43.863Z,9.50
2017-08-18T03:57:11.094Z,8.00
2017-08-18T03:59:39.375Z,8.20
2017-08-18T04:02:06.605Z,8.07
2017-08-18T04:04:33.828Z,7.63
2017-08-18T04:07:03.005Z,8.87
2017-08-18T04:09:30.258Z,9.30
2017-08-18T04:11:57.489Z,8.63
2017-08-18T04:14:24.714Z,8.90
2017-08-18T04:16:51.944Z,8.63
2017-08-18T04:19:19.170Z,8.43
2017-08-18T04:21:46.396Z,8.07
2017-08-18T04:24:13.627Z,9.17
2017-08-18T04:26:40.853Z,7.90
2017-08-18T04:29:08.878Z,8.27
2017-08-18T04:31:36.106Z,7.87
2017-08-18T04:34:03.321Z,7.77
2017-08-18T04:36:30.556Z,8.53
2017-08-18T04:38:57.790Z,8.17
2017-08-18T04:41:25.005Z,8.03
2017-08-18T04:43:52.241Z,7.83
2017-08-18T04:46:19.461Z,8.20
2017-08-18T04:48:46.685Z,7.73
2017-08-18T04:51:13.913Z,6.90
2017-08-18T04:53:41.139Z,7.30
2017-08-18T04:56:09.215Z,6.97
2017-08-18T04:58:36.449Z,6.63
2017-08-18T05:01:03.690Z,6.97
2017-08-18T05:03:30.912Z,7.30
2017-08-18T05:05:58.147Z,7.30
2017-08-18T05:08:25.373Z,7.33
2017-08-18T05:10:52.594Z,7.50
2017-08-18T05:13:19.816Z,7.53
2017-08-18T05:15:47.031Z,7.67
2017-08-18T05:18:14.269Z,6.30
2017-08-18T05:20:41.485Z,7.20
2017-08-18T05:23:08.716Z,8.90
2017-08-18T05:25:35.961Z,7.63
2017-08-18T05:28:04.880Z,8.10
2017-08-18T05:30:32.100Z,8.80
2017-08-18T05:32:59.321Z,8.80
2017-08-18T05:35:26.565Z,8.03
2017-08-18T05:37:54.017Z,6.50
2017-08-18T05:40:21.245Z,6.73
2017-08-18T05:42:50.421Z,6.67
2017-08-18T05:45:17.648Z,7.00
2017-08-18T05:47:46.852Z,6.97
2017-08-18T05:50:14.084Z,6.63
2017-08-18T05:52:41.308Z,6.63
2017-08-18T05:55:10.500Z,6.40
2017-08-18T05:57:37.735Z,6.33
2017-08-18T06:00:04.950Z,6.13
2017-08-18T06:02:32.413Z,6.87
2017-08-18T06:05:01.604Z,6.50
2017-08-18T06:07:28.830Z,6.23
2017-08-18T06:09:56.058Z,6.40
2017-08-18T06:12:25.224Z,5.40
2017-08-18T06:14:52.444Z,5.90
2017-08-18T06:17:19.665Z,6.23
2017-08-18T06:19:46.892Z,5.53
2017-08-18T06:22:14.126Z,5.90
2017-08-18T06:24:41.353Z,5.30
2017-08-18T06:27:08.572Z,5.40
2017-08-18T06:29:35.793Z,4.80
2017-08-18T06:32:04.948Z,5.50
2017-08-18T06:34:32.193Z,5.87
2017-08-18T06:37:01.359Z,6.30
2017-08-18T06:39:28.576Z,5.60
2017-08-18T06:41:55.806Z,5.63
2017-08-18T06:44:23.037Z,6.90
2017-08-18T06:46:50.277Z,6.60
2017-08-18T06:49:19.444Z,6.37
2017-08-18T06:51:46.669Z,5.97
2017-08-18T06:54:13.883Z,6.17
2017-08-18T06:56:41.105Z,5.83
2017-08-18T06:59:08.332Z,5.97
2017-08-18T07:01:35.552Z,5.90
2017-08-18T07:04:03.328Z,4.83
2017-08-18T07:06:30.548Z,4.67
2017-08-18T07:08:57.798Z,4.83
2017-08-18T07:11:25.685Z,5.00
2017-08-18T07:13:54.846Z,5.07
2017-08-18T07:16:22.069Z,4.93
2017-08-18T07:18:49.292Z,4.90
2017-08-18T07:21:16.506Z,5.20
2017-08-18T07:23:43.727Z,5.37
2017-08-18T07:26:10.942Z,4.97
2017-08-18T07:28:38.158Z,4.90
2017-08-18T07:31:05.380Z,4.70
2017-08-18T07:33:32.600Z,4.30
2017-08-18T07:35:59.816Z,5.10
2017-08-18T07:38:27.040Z,6.03
2017-08-18T07:40:54.256Z,4.97
2017-08-18T07:43:21.485Z,5.23
2017-08-18T07:45:48.704Z,4.47
2017-08-18T07:48:15.928Z,5.90
2017-08-18T07:50:43.152Z,4.83
2017-08-18T07:53:10.368Z,4.50
2017-08-18T07:55:37.597Z,4.33
2017-08-18T07:58:04.833Z,4.90
2017-08-18T08:00:32.052Z,5.30
2017-08-18T08:03:01.256Z,5.60
2017-08-18T08:05:28.486Z,4.90
2017-08-18T08:07:55.714Z,5.00
2017-08-18T08:10:22.950Z,4.67
2017-08-18T08:12:50.187Z,4.90
2017-08-18T08:15:17.409Z,5.07
2017-08-18T08:17:46.569Z,5.03
2017-08-18T08:20:13.792Z,4.73
2017-08-18T08:22:41.025Z,5.30
2017-08-18T08:25:08.253Z,5.30
2017-08-18T08:27:35.470Z,4.57
2017-08-18T08:30:02.701Z,4.70
2017-08-18T08:32:29.913Z,5.00
2017-08-18T08:34:57.133Z,4.97
2017-08-18T08:40:03.090Z,5.27
2017-08-18T08:42:30.338Z,4.60
2017-08-18T08:44:57.561Z,4.80
2017-08-18T08:47:24.784Z,5.07
2017-08-18T08:49:52.014Z,5.07
2017-08-18T08:52:21.221Z,4.80
2017-08-18T08:54:48.440Z,4.80
2017-08-18T08:57:15.716Z,5.20
2017-08-18T08:59:42.940Z,5.23
2017-08-18T09:02:10.160Z,5.03
2017-08-18T09:04:37.393Z,4.30
2017-08-18T09:07:04.616Z,5.20
2017-08-18T09:09:31.844Z,4.83
2017-08-18T09:11:59.062Z,4.80
2017-08-18T09:14:26.284Z,4.57
2017-08-18T09:16:55.504Z,5.00
2017-08-18T09:19:22.737Z,4.60
2017-08-18T09:21:49.965Z,5.97
2017-08-18T09:24:17.189Z,4.50
2017-08-18T09:26:44.677Z,5.43
2017-08-18T09:29:13.862Z,5.20
2017-08-18T09:31:41.089Z,4.90
2017-08-18T09:34:08.309Z,5.13
2017-08-18T09:36:35.553Z,5.40
2017-08-18T09:39:02.780Z,5.23
2017-08-18T09:41:30.005Z,5.07
2017-08-18T09:43:59.164Z,5.77
2017-08-18T09:46:26.386Z,5.10
2017-08-18T09:48:59.254Z,5.40
2017-08-18T09:51:33.228Z,5.60
2017-08-18T09:54:06.204Z,5.13
2017-08-18T09:56:39.015Z,4.93
2017-08-18T09:59:15.001Z,6.23
2017-08-18T10:01:42.226Z,5.00
2017-08-18T10:04:09.452Z,5.77
2017-08-18T10:06:36.682Z,5.80
2017-08-18T10:09:03.468Z,5.40
2017-08-18T10:11:30.700Z,4.70
2017-08-18T10:13:57.934Z,5.70
2017-08-18T10:16:27.116Z,4.70
2017-08-18T10:18:54.336Z,5.30
2017-08-18T10:21:21.558Z,4.67
2017-08-18T10:23:48.777Z,4.70
2017-08-18T10:26:16.001Z,5.40
2017-08-18T10:28:45.173Z,5.37
2017-08-18T10:31:12.392Z,4.90
2017-08-18T10:33:39.622Z,4.70
2017-08-18T10:36:06.670Z,5.33
2017-08-18T10:38:33.904Z,4.37
2017-08-18T10:41:01.141Z,5.37
2017-08-18T10:43:28.370Z,4.63
2017-08-18T10:45:55.597Z,4.63
2017-08-18T10:48:22.849Z,4.40
2017-08-18T10:50:50.083Z,4.73
2017-08-18T10:53:17.439Z,5.40
2017-08-18T10:55:44.676Z,4.43
2017-08-18T10:58:12.040Z,5.07
2017-08-18T11:00:39.266Z,4.20
2017-08-18T11:03:06.506Z,4.30
2017-08-18T11:05:33.743Z,5.30
2017-08-18T11:08:00.973Z,4.83
2017-08-18T11:10:28.826Z,4.63
2017-08-18T11:12:56.380Z,4.80
2017-08-18T11:15:23.805Z,5.70
2017-08-18T11:17:51.030Z,5.10
2017-08-18T11:20:18.257Z,5.00
2017-08-18T11:22:45.480Z,4.57
2017-08-18T11:25:12.712Z,5.03
2017-08-18T11:27:39.934Z,4.70
2017-08-18T11:30:07.158Z,4.10
2017-08-18T11:32:36.529Z,4.63
2017-08-18T11:35:03.750Z,4.93
2017-08-18T11:37:30.981Z,5.03
2017-08-18T11:39:58.212Z,4.47
2017-08-18T11:42:25.452Z,4.67
2017-08-18T11:44:54.617Z,4.80
2017-08-18T11:47:21.842Z,5.23
2017-08-18T11:49:51.008Z,4.20
2017-08-18T11:52:18.900Z,4.57
2017-08-18T11:54:45.944Z,5.10
2017-08-18T11:57:13.160Z,4.33
2017-08-18T11:59:40.381Z,4.07
2017-08-18T12:02:07.606Z,4.90
2017-08-18T12:04:34.832Z,4.50
2017-08-18T12:07:02.049Z,4.37
2017-08-18T12:09:29.269Z,4.70
2017-08-18T12:11:58.440Z,4.87
2017-08-18T12:14:25.669Z,4.50
2017-08-18T12:16:52.890Z,3.80
2017-08-18T12:19:20.110Z,4.60
2017-08-18T12:21:47.328Z,4.50
2017-08-18T12:24:14.547Z,4.37
2017-08-18T12:26:41.769Z,3.90
2017-08-18T12:29:08.998Z,4.27
2017-08-18T12:31:36.220Z,4.00
2017-08-18T12:34:03.441Z,4.03
2017-08-18T12:36:30.666Z,3.83
2017-08-18T12:38:59.832Z,3.90
2017-08-18T12:41:27.104Z,3.60
2017-08-18T12:43:54.376Z,3.30
2017-08-18T12:46:21.598Z,3.63
2017-08-18T12:48:48.857Z,3.67
2017-08-18T12:51:16.085Z,2.70
2017-08-18T12:53:45.274Z,3.57
2017-08-18T12:56:12.510Z,2.80
2017-08-18T12:58:41.696Z,2.90
2017-08-18T13:01:08.920Z,2.83
2017-08-18T13:03:36.146Z,2.60
2017-08-18T13:06:03.369Z,2.10
2017-08-18T13:08:30.616Z,2.90
2017-08-18T13:10:57.844Z,2.60
2017-08-18T13:13:25.065Z,2.90
2017-08-18T13:15:52.285Z,3.00
2017-08-18T13:18:19.512Z,2.70
2017-08-18T13:20:46.752Z,2.50
2017-08-18T13:23:13.982Z,2.90
2017-08-18T13:25:41.197Z,2.80
2017-08-18T13:28:08.424Z,2.63
2017-08-18T13:30:35.654Z,2.87
2017-08-18T13:33:02.894Z,3.10
2017-08-18T13:35:32.043Z,2.70
2017-08-18T13:37:59.265Z,2.80
2017-08-18T13:40:27.083Z,2.57
2017-08-18T13:42:54.308Z,2.57
2017-08-18T13:45:23.485Z,2.80
2017-08-18T13:47:50.725Z,3.00
2017-08-18T13:50:17.947Z,3.07
2017-08-18T13:52:45.165Z,3.07
2017-08-18T13:55:12.390Z,2.57
2017-08-18T13:57:39.618Z,3.10
2017-08-18T14:00:08.535Z,2.37
2017-08-18T14:02:35.880Z,2.70
2017-08-18T14:05:03.121Z,2.30
2017-08-18T14:07:31.612Z,2.40
2017-08-18T14:09:59.413Z,2.05
2017-08-18T14:12:26.648Z,1.83
2017-08-18T14:14:55.205Z,1.77
2017-08-18T14:17:23.000Z,2.00
2017-08-18T14:19:50.801Z,2.25
2017-08-18T14:22:18.028Z,2.30
2017-08-18T14:24:45.713Z,1.90
2017-08-18T14:27:18.493Z,1.70
2017-08-18T14:29:46.284Z,2.17
2017-08-18T14:32:15.108Z,2.40
2017-08-18T14:34:42.909Z,2.22
2017-08-18T14:37:10.708Z,2.50
2017-08-18T14:39:38.513Z,2.40
2017-08-18T14:42:06.308Z,2.37
2017-08-18T14:44:33.533Z,2.33
2017-08-18T14:47:01.322Z,2.22
2017-08-18T14:49:29.117Z,2.60
2017-08-18T14:51:56.920Z,2.58
2017-08-18T14:54:24.719Z,1.95
2017-08-18T14:56:51.951Z,2.23
2017-08-18T14:59:19.185Z,2.00
2017-08-18T15:01:48.356Z,2.03
2017-08-18T15:04:15.580Z,2.13
2017-08-18T15:06:42.809Z,2.20
2017-08-18T15:09:09.850Z,2.50
2017-08-18T15:11:37.080Z,2.20
2017-08-18T15:14:04.321Z,2.43
2017-08-18T15:16:33.496Z,2.43
2017-08-18T15:19:00.963Z,2.00
2017-08-18T15:21:28.265Z,1.93
2017-08-18T15:23:55.485Z,2.83
2017-08-18T15:26:22.707Z,2.37
2017-08-18T15:28:49.940Z,2.10
2017-08-18T15:31:17.186Z,2.30
2017-08-18T15:33:44.979Z,2.10
2017-08-18T15:36:12.805Z,2.17
2017-08-18T15:38:40.029Z,2.23
2017-08-18T15:41:07.253Z,2.67
2017-08-18T15:43:36.437Z,2.60
2017-08-18T15:46:03.666Z,2.77
2017-08-18T15:48:30.888Z,2.33
2017-08-18T15:50:58.117Z,2.23
2017-08-18T15:53:25.341Z,2.10
2017-08-18T15:55:52.560Z,2.20
2017-08-18T15:58:21.742Z,2.50
2017-08-18T16:00:48.970Z,2.50
2017-08-18T16:03:16.207Z,2.30
2017-08-18T16:05:45.402Z,2.60
2017-08-18T16:08:12.633Z,2.60
2017-08-18T16:10:39.860Z,2.77
2017-08-18T16:13:07.081Z,2.20
2017-08-18T16:15:34.309Z,2.43
2017-08-18T16:18:01.630Z,2.47
2017-08-18T16:20:31.308Z,2.50
2017-08-18T16:22:58.537Z,2.87
2017-08-18T16:25:25.771Z,2.57
2017-08-18T16:27:54.968Z,2.70
2017-08-18T16:30:22.194Z,2.80
2017-08-18T16:32:49.225Z,2.50
2017-08-18T16:35:18.399Z,2.70
2017-08-18T16:37:45.629Z,2.50
2017-08-18T16:40:12.885Z,2.40
2017-08-18T16:42:40.101Z,2.70
2017-08-18T16:45:07.330Z,2.97
2017-08-18T16:47:34.554Z,2.80
2017-08-18T16:50:02.783Z,2.70
2017-08-18T16:52:30.013Z,2.60
2017-08-18T16:54:57.244Z,3.20
2017-08-18T16:57:26.377Z,3.00
2017-08-18T16:59:53.609Z,3.63
2017-08-18T17:02:20.846Z,3.10
2017-08-18T17:04:48.075Z,3.00
2017-08-18T17:07:15.298Z,3.70
2017-08-18T17:09:42.514Z,3.93
2017-08-18T17:12:10.730Z,4.97
2017-08-18T17:14:37.965Z,4.17
2017-08-18T17:17:07.156Z,4.20
2017-08-18T17:19:34.376Z,4.40
2017-08-18T17:22:01.609Z,4.27
2017-08-18T17:24:28.829Z,4.00
2017-08-18T17:26:56.081Z,4.60
2017-08-18T17:29:23.306Z,4.53
2017-08-18T17:31:52.500Z,4.37
2017-08-18T17:34:21.694Z,4.70
2017-08-18T17:36:49.000Z,5.50
2017-08-18T17:39:18.789Z,4.53
2017-08-18T17:41:47.976Z,4.37
2017-08-18T17:44:15.218Z,5.50
2017-08-18T17:46:42.452Z,5.13
2017-08-18T17:49:09.682Z,4.77
2017-08-18T17:51:36.909Z,5.20
2017-08-18T17:54:04.221Z,4.97
2017-08-18T17:56:31.264Z,5.60
2017-08-18T17:58:58.504Z,5.93
2017-08-18T18:01:25.752Z,6.20
2017-08-18T18:03:54.286Z,6.00
2017-08-18T18:06:21.866Z,5.77
2017-08-18T18:08:49.100Z,5.40
2017-08-18T18:11:16.332Z,5.57
2017-08-18T18:13:43.601Z,5.40
2017-08-18T18:16:10.833Z,6.40
2017-08-18T18:18:38.072Z,5.70
2017-08-18T18:21:05.301Z,5.23
2017-08-18T18:23:32.532Z,6.10
2017-08-18T18:25:59.752Z,6.23
2017-08-18T18:28:27.009Z,6.30
2017-08-18T18:30:54.250Z,5.47
2017-08-18T18:33:21.504Z,6.17
2017-08-18T18:35:48.743Z,5.80
2017-08-18T18:38:15.784Z,6.30
2017-08-18T18:40:44.238Z,5.70
2017-08-18T18:43:11.492Z,6.20
2017-08-18T18:45:38.741Z,6.60
2017-08-18T18:48:05.993Z,6.27
2017-08-18T18:50:36.202Z,6.90
2017-08-18T18:53:03.432Z,5.70
2017-08-18T18:55:32.696Z,5.40
2017-08-18T18:57:59.925Z,4.63
2017-08-18T19:00:27.173Z,3.30
2017-08-18T19:02:54.393Z,3.23
2017-08-18T19:05:21.626Z,3.10
2017-08-18T19:07:48.844Z,2.90
2017-08-18T19:10:16.063Z,2.00
2017-08-18T19:12:43.284Z,2.40
2017-08-18T19:15:12.476Z,2.47
2017-08-18T19:17:39.997Z,2.22
2017-08-18T19:20:07.500Z,1.50
2017-08-18T19:22:35.008Z,1.60
2017-08-18T19:25:02.529Z,2.12
2017-08-18T19:27:30.044Z,2.15
2017-08-18T19:29:57.558Z,2.03
2017-08-18T19:32:26.270Z,1.77
2017-08-18T19:34:53.794Z,1.75
2017-08-18T19:37:21.296Z,2.05
2017-08-18T19:39:48.813Z,1.85
2017-08-18T19:42:16.045Z,2.00
2017-08-18T19:44:43.786Z,1.60
2017-08-18T19:47:12.982Z,1.60
2017-08-18T19:49:40.416Z,1.87
2017-08-18T19:52:07.641Z,2.00
2017-08-18T19:54:36.136Z,1.30
2017-08-18T19:57:03.360Z,1.70
2017-08-18T19:59:30.865Z,1.60
2017-08-18T20:01:58.089Z,1.90
2017-08-18T20:04:30.449Z,1.60
2017-08-18T20:07:00.272Z,1.65
2017-08-18T20:09:31.105Z,1.60
2017-08-18T20:12:02.140Z,1.50
2017-08-18T20:14:29.729Z,1.77
2017-08-18T20:16:58.980Z,1.83
2017-08-18T20:19:26.521Z,1.55
2017-08-18T20:21:54.048Z,2.05
2017-08-18T20:24:21.613Z,1.50
2017-08-18T20:26:48.844Z,1.77
2017-08-18T20:29:16.348Z,1.90
2017-08-18T20:31:45.504Z,1.63
2017-08-18T20:34:14.024Z,1.65
2017-08-18T20:36:43.862Z,2.17
2017-08-18T20:39:11.301Z,2.13
2017-08-18T20:41:38.807Z,2.42
2017-08-18T20:44:06.327Z,1.65
2017-08-18T20:46:35.812Z,1.47
2017-08-18T20:49:05.098Z,1.40
2017-08-18T20:51:33.936Z,1.67
2017-08-18T20:54:03.464Z,1.42
2017-08-18T20:56:30.996Z,1.73
2017-08-18T20:58:58.517Z,1.67
2017-08-18T21:01:25.740Z,1.70
2017-08-18T21:03:52.968Z,1.67
2017-08-18T21:06:20.477Z,1.40
2017-08-18T21:08:47.997Z,2.15
2017-08-18T21:11:15.506Z,1.70
2017-08-18T21:13:42.737Z,1.83
2017-08-18T21:16:11.905Z,1.90
2017-08-18T21:18:41.361Z,1.55
2017-08-18T21:21:08.585Z,1.97
2017-08-18T21:23:35.808Z,1.87
2017-08-18T21:26:05.021Z,1.80
2017-08-18T21:28:32.237Z,1.60
2017-08-18T21:30:59.740Z,1.80
2017-08-18T21:33:26.969Z,1.60
2017-08-18T21:35:54.474Z,1.55
2017-08-18T21:38:23.621Z,1.80
2017-08-18T21:40:50.868Z,1.63
2017-08-18T21:43:18.100Z,1.60
2017-08-18T21:45:47.328Z,1.60
2017-08-18T21:48:14.548Z,1.53
2017-08-18T21:50:41.768Z,1.63
2017-08-18T21:53:09.324Z,1.97
2017-08-18T21:55:36.551Z,1.70
2017-08-18T21:58:03.777Z,1.80
2017-08-18T22:00:30.993Z,1.63
2017-08-18T22:02:58.221Z,1.33
2017-08-18T22:05:25.729Z,1.60
2017-08-18T22:07:52.953Z,1.67
2017-08-18T22:10:20.177Z,1.73
2017-08-18T22:12:47.406Z,1.47
2017-08-18T22:15:14.624Z,1.83
2017-08-18T22:17:41.870Z,1.77
2017-08-18T22:20:09.096Z,1.83
2017-08-18T22:22:36.348Z,1.70
2017-08-18T22:25:03.373Z,1.60
2017-08-18T22:27:30.597Z,1.50
2017-08-18T22:29:57.818Z,1.47
2017-08-18T22:32:25.045Z,1.80
2017-08-18T22:34:52.264Z,1.63
2017-08-18T22:37:19.508Z,1.27
2017-08-18T22:39:46.732Z,1.60
2017-08-18T22:42:15.912Z,1.80
2017-08-18T22:44:43.166Z,2.13
2017-08-18T22:47:10.389Z,1.60
2017-08-18T22:49:37.693Z,1.40
2017-08-18T22:52:04.909Z,1.30
2017-08-18T22:54:32.137Z,1.50
2017-08-18T22:56:59.361Z,1.20
2017-08-18T22:59:26.575Z,1.90
2017-08-18T23:01:53.988Z,1.43
2017-08-18T23:04:21.206Z,1.17
2017-08-18T23:06:48.443Z,1.30
2017-08-18T23:09:15.664Z,1.60
2017-08-18T23:11:42.888Z,1.30
2017-08-18T23:14:10.124Z,1.30
2017-08-18T23:16:37.349Z,2.13
2017-08-18T23:19:04.572Z,1.33
2017-08-18T23:21:31.785Z,1.13
2017-08-18T23:23:58.996Z,1.20
2017-08-18T23:26:26.216Z,1.77
2017-08-18T23:28:53.448Z,1.40
2017-08-18T23:31:20.668Z,1.20
2017-08-18T23:33:47.902Z,1.10
2017-08-18T23:36:17.062Z,1.10
2017-08-18T23:38:44.320Z,1.20
2017-08-18T23:41:11.545Z,1.20
2017-08-18T23:43:38.781Z,1.47
2017-08-18T23:46:06.008Z,1.23
2017-08-18T23:48:33.219Z,1.57
2017-08-18T23:51:00.446Z,1.63
2017-08-18T23:53:27.493Z,1.10
2017-08-18T23:55:54.721Z,1.53
2017-08-18T23:58:21.944Z,1.03
